createdAt,value
2017-04-17T00:00:21.389Z,4.44
2017-04-17T00:01:21.351Z,4.33
2017-04-17T00:02:21.782Z,4.36
2017-04-17T00:03:21.324Z,4.3
2017-04-17T00:04:21.002Z,4.3
2017-04-17T00:05:21.297Z,4.29
2017-04-17T00:06:21.771Z,4.29
2017-04-17T00:07:21.269Z,4.26
2017-04-17T00:08:21.254Z,4.26
2017-04-17T00:09:21.834Z,4.22
2017-04-17T00:10:20.913Z,4.18
2017-04-17T00:11:21.213Z,4.18
2017-04-17T00:12:21.657Z,4.24
2017-04-17T00:13:21.189Z,4.15
2017-04-17T00:14:21.178Z,4.17
2017-04-17T00:15:21.506Z,4.28
2017-04-17T00:16:21.146Z,4.18
2017-04-17T00:17:21.174Z,4.18
2017-04-17T00:18:21.181Z,4.2
2017-04-17T00:19:21.111Z,4.18
2017-04-17T00:20:21.251Z,4.11
2017-04-17T00:21:21.077Z,4.12
2017-04-17T00:22:21.864Z,4.17
2017-04-17T00:23:21.051Z,4.18
2017-04-17T00:24:21.038Z,4.15
2017-04-17T00:25:21.821Z,4.21
2017-04-17T00:26:21.010Z,4.14
2017-04-17T00:27:21.002Z,4.08
2017-04-17T00:28:22.005Z,4.04
2017-04-17T00:29:20.971Z,4.1
2017-04-17T00:30:20.960Z,4.14
2017-04-17T00:31:21.918Z,4.1
2017-04-17T00:32:20.614Z,4.1
2017-04-17T00:33:20.918Z,4.07
2017-04-17T00:34:21.703Z,4.07
2017-04-17T00:35:20.886Z,4
2017-04-17T00:36:21.645Z,3.99
2017-04-17T00:37:20.863Z,4.04
2017-04-17T00:38:20.931Z,4.04
2017-04-17T00:39:20.837Z,4.03
2017-04-17T00:40:20.501Z,4.04
2017-04-17T00:41:20.814Z,4
2017-04-17T00:42:20.795Z,3.96
2017-04-17T00:43:20.777Z,3.96
2017-04-17T00:44:20.448Z,3.93
2017-04-17T00:45:20.755Z,3.97
2017-04-17T00:46:20.733Z,3.96
2017-04-17T00:47:20.406Z,3.92
2017-04-17T00:48:20.710Z,3.96
2017-04-17T00:49:20.706Z,3.93
2017-04-17T00:50:20.685Z,3.96
2017-04-17T00:51:20.350Z,3.85
2017-04-17T00:52:20.657Z,3.9
2017-04-17T00:53:20.642Z,3.86
2017-04-17T00:54:20.626Z,3.9
2017-04-17T00:55:21.437Z,3.86
2017-04-17T00:56:20.598Z,3.78
2017-04-17T00:57:20.584Z,3.84
2017-04-17T00:58:21.355Z,3.75
2017-04-17T00:59:20.563Z,3.78
2017-04-17T01:00:21.204Z,3.79
2017-04-17T01:01:33.101Z,3.64
2017-04-17T01:02:20.510Z,3.69
2017-04-17T01:03:21.009Z,3.69
2017-04-17T01:04:20.487Z,3.66
2017-04-17T01:05:20.470Z,3.74
2017-04-17T01:06:20.691Z,3.6
2017-04-17T01:07:20.533Z,3.56
2017-04-17T01:08:20.429Z,3.57
2017-04-17T01:09:20.794Z,3.61
2017-04-17T01:10:20.087Z,3.51
2017-04-17T01:11:20.388Z,3.54
2017-04-17T01:12:20.730Z,3.57
2017-04-17T01:13:20.357Z,3.54
2017-04-17T01:14:20.345Z,3.57
2017-04-17T01:15:20.449Z,3.51
2017-04-17T01:16:20.318Z,3.54
2017-04-17T01:17:19.986Z,3.56
2017-04-17T01:18:20.290Z,3.51
2017-04-17T01:19:20.275Z,3.51
2017-04-17T01:20:20.259Z,3.46
2017-04-17T01:21:19.929Z,3.48
2017-04-17T01:22:19.597Z,3.42
2017-04-17T01:23:19.903Z,3.37
2017-04-17T01:24:19.886Z,3.45
2017-04-17T01:25:19.869Z,3.42
2017-04-17T01:26:20.172Z,3.35
2017-04-17T01:27:19.844Z,3.32
2017-04-17T01:28:19.832Z,3.29
2017-04-17T01:29:20.131Z,3.3
2017-04-17T01:30:20.114Z,3.37
2017-04-17T01:31:20.100Z,3.21
2017-04-17T01:32:19.773Z,3.21
2017-04-17T01:33:20.110Z,3.24
2017-04-17T01:34:20.062Z,3.23
2017-04-17T01:35:20.039Z,3.26
2017-04-17T01:36:20.024Z,3.24
2017-04-17T01:37:20.007Z,3.2
2017-04-17T01:38:20.004Z,3.23
2017-04-17T01:39:19.666Z,3.23
2017-04-17T01:40:19.971Z,3.19
2017-04-17T01:41:19.324Z,3.2
2017-04-17T01:42:19.939Z,3.14
2017-04-17T01:43:19.971Z,3.09
2017-04-17T01:44:19.916Z,3.11
2017-04-17T01:45:19.899Z,3.09
2017-04-17T01:46:19.883Z,3.03
2017-04-17T01:47:19.864Z,3.02
2017-04-17T01:48:19.855Z,2.99
2017-04-17T01:49:19.842Z,2.96
2017-04-17T01:50:19.824Z,2.91
2017-04-17T01:51:19.489Z,2.9
2017-04-17T01:52:19.789Z,2.9
2017-04-17T01:53:19.461Z,2.87
2017-04-17T01:54:19.763Z,2.78
2017-04-17T01:55:19.748Z,2.83
2017-04-17T01:56:19.418Z,2.8
2017-04-17T01:57:19.717Z,2.78
2017-04-17T01:58:19.707Z,2.77
2017-04-17T01:59:19.684Z,2.8
2017-04-17T02:00:19.667Z,2.8
2017-04-17T02:01:19.338Z,2.8
2017-04-17T02:02:19.669Z,2.76
2017-04-17T02:03:19.623Z,2.73
2017-04-17T02:04:19.609Z,2.73
2017-04-17T02:05:19.595Z,2.7
2017-04-17T02:06:19.581Z,2.66
2017-04-17T02:07:19.567Z,2.63
2017-04-17T02:08:19.558Z,2.59
2017-04-17T02:09:19.539Z,2.67
2017-04-17T02:10:19.699Z,2.6
2017-04-17T02:11:19.505Z,2.62
2017-04-17T02:12:19.496Z,2.69
2017-04-17T02:13:19.165Z,2.77
2017-04-17T02:14:19.461Z,2.72
2017-04-17T02:15:19.449Z,2.7
2017-04-17T02:16:19.433Z,2.76
2017-04-17T02:17:19.417Z,2.66
2017-04-17T02:18:19.092Z,2.66
2017-04-17T02:19:19.391Z,2.81
2017-04-17T02:20:19.376Z,2.81
2017-04-17T02:21:19.042Z,2.81
2017-04-17T02:22:19.339Z,2.73
2017-04-17T02:23:19.015Z,2.77
2017-04-17T02:24:19.313Z,2.81
2017-04-17T02:25:19.300Z,2.81
2017-04-17T02:26:19.286Z,2.81
2017-04-17T02:27:19.273Z,2.8
2017-04-17T02:28:19.255Z,2.78
2017-04-17T02:29:18.930Z,2.84
2017-04-17T02:30:18.913Z,2.85
2017-04-17T02:31:18.896Z,2.9
2017-04-17T02:32:19.194Z,2.81
2017-04-17T02:33:19.182Z,2.78
2017-04-17T02:34:19.162Z,2.83
2017-04-17T02:35:19.155Z,2.81
2017-04-17T02:36:19.293Z,2.9
2017-04-17T02:37:19.121Z,2.91
2017-04-17T02:38:19.107Z,2.95
2017-04-17T02:39:18.781Z,2.9
2017-04-17T02:40:19.077Z,2.88
2017-04-17T02:41:18.746Z,2.98
2017-04-17T02:42:18.733Z,2.87
2017-04-17T02:43:19.034Z,2.95
2017-04-17T02:44:19.019Z,2.99
2017-04-17T02:45:18.685Z,2.9
2017-04-17T02:46:18.675Z,2.88
2017-04-17T02:47:18.974Z,2.95
2017-04-17T02:48:18.959Z,2.88
2017-04-17T02:49:18.945Z,2.95
2017-04-17T02:50:18.621Z,2.98
2017-04-17T02:51:18.914Z,2.93
2017-04-17T02:52:18.903Z,2.87
2017-04-17T02:53:18.891Z,2.87
2017-04-17T02:54:19.184Z,2.85
2017-04-17T02:55:18.555Z,2.96
2017-04-17T02:56:18.210Z,2.87
2017-04-17T02:57:18.512Z,2.85
2017-04-17T02:58:18.497Z,2.85
2017-04-17T02:59:18.485Z,2.76
2017-04-17T03:00:18.781Z,2.85
2017-04-17T03:01:18.455Z,2.78
2017-04-17T03:02:18.755Z,2.84
2017-04-17T03:03:18.546Z,2.77
2017-04-17T03:04:18.726Z,2.84
2017-04-17T03:05:18.708Z,2.81
2017-04-17T03:06:18.378Z,2.84
2017-04-17T03:07:18.363Z,2.77
2017-04-17T03:08:18.664Z,2.8
2017-04-17T03:09:18.333Z,2.81
2017-04-17T03:10:18.637Z,2.84
2017-04-17T03:11:18.621Z,2.81
2017-04-17T03:12:18.292Z,2.88
2017-04-17T03:13:18.589Z,2.8
2017-04-17T03:14:18.576Z,2.8
2017-04-17T03:15:18.561Z,2.85
2017-04-17T03:16:18.233Z,2.78
2017-04-17T03:17:18.527Z,2.83
2017-04-17T03:18:17.888Z,2.78
2017-04-17T03:19:18.510Z,2.83
2017-04-17T03:20:18.488Z,2.84
2017-04-17T03:21:18.699Z,2.8
2017-04-17T03:22:18.145Z,2.73
2017-04-17T03:23:18.154Z,2.81
2017-04-17T03:24:18.115Z,2.78
2017-04-17T03:25:17.784Z,2.81
2017-04-17T03:26:18.394Z,2.8
2017-04-17T03:27:18.385Z,2.78
2017-04-17T03:28:18.054Z,2.83
2017-04-17T03:29:18.037Z,2.81
2017-04-17T03:30:18.486Z,2.69
2017-04-17T03:31:18.326Z,2.7
2017-04-17T03:32:18.001Z,2.69
2017-04-17T03:33:18.323Z,2.67
2017-04-17T03:34:18.285Z,2.69
2017-04-17T03:35:17.633Z,2.69
2017-04-17T03:36:17.933Z,2.72
2017-04-17T03:37:18.232Z,2.72
2017-04-17T03:38:18.223Z,2.7
2017-04-17T03:39:17.988Z,2.73
2017-04-17T03:40:18.188Z,2.8
2017-04-17T03:41:18.172Z,2.7
2017-04-17T03:42:17.850Z,2.73
2017-04-17T03:43:17.835Z,2.73
2017-04-17T03:44:17.817Z,2.77
2017-04-17T03:45:18.115Z,2.76
2017-04-17T03:46:17.785Z,2.77
2017-04-17T03:47:18.121Z,2.8
2017-04-17T03:48:18.070Z,2.73
2017-04-17T03:49:17.739Z,2.8
2017-04-17T03:50:18.037Z,2.8
2017-04-17T03:51:18.025Z,2.73
2017-04-17T03:52:18.010Z,2.72
2017-04-17T03:53:17.998Z,2.78
2017-04-17T03:54:17.981Z,2.7
2017-04-17T03:55:17.961Z,2.78
2017-04-17T03:56:18.020Z,2.69
2017-04-17T03:57:17.939Z,2.78
2017-04-17T03:58:17.921Z,2.78
2017-04-17T03:59:17.597Z,2.77
2017-04-17T04:00:17.887Z,2.84
2017-04-17T04:01:17.872Z,2.83
2017-04-17T04:02:17.884Z,2.83
2017-04-17T04:03:17.844Z,2.8
2017-04-17T04:04:17.516Z,2.88
2017-04-17T04:05:17.715Z,2.81
2017-04-17T04:06:17.486Z,2.85
2017-04-17T04:07:17.784Z,2.78
2017-04-17T04:08:17.768Z,2.88
2017-04-17T04:09:17.755Z,2.81
2017-04-17T04:10:17.739Z,2.85
2017-04-17T04:11:17.724Z,2.88
2017-04-17T04:12:17.393Z,2.88
2017-04-17T04:13:17.690Z,2.91
2017-04-17T04:14:17.678Z,2.87
2017-04-17T04:15:17.345Z,2.9
2017-04-17T04:16:17.334Z,2.83
2017-04-17T04:17:17.319Z,2.84
2017-04-17T04:18:17.621Z,2.81
2017-04-17T04:19:17.617Z,2.83
2017-04-17T04:20:17.590Z,2.8
2017-04-17T04:21:17.259Z,2.77
2017-04-17T04:22:17.271Z,2.81
2017-04-17T04:23:17.545Z,2.84
2017-04-17T04:24:17.530Z,2.8
2017-04-17T04:25:17.511Z,2.83
2017-04-17T04:26:17.500Z,2.84
2017-04-17T04:27:17.486Z,2.84
2017-04-17T04:28:16.838Z,2.88
2017-04-17T04:29:17.455Z,2.78
2017-04-17T04:30:17.124Z,2.81
2017-04-17T04:31:17.463Z,2.78
2017-04-17T04:32:17.418Z,2.81
2017-04-17T04:33:17.397Z,2.84
2017-04-17T04:34:17.395Z,2.8
2017-04-17T04:35:17.050Z,2.87
2017-04-17T04:36:17.042Z,2.8
2017-04-17T04:37:17.019Z,2.85
2017-04-17T04:38:17.002Z,2.85
2017-04-17T04:39:17.316Z,2.83
2017-04-17T04:40:16.974Z,2.81
2017-04-17T04:41:17.275Z,2.91
2017-04-17T04:42:17.264Z,2.85
2017-04-17T04:43:17.250Z,2.83
2017-04-17T04:44:16.920Z,2.85
2017-04-17T04:45:16.899Z,2.93
2017-04-17T04:46:16.885Z,2.83
2017-04-17T04:47:17.186Z,2.85
2017-04-17T04:48:17.168Z,2.84
2017-04-17T04:49:16.842Z,2.78
2017-04-17T04:50:17.140Z,2.78
2017-04-17T04:51:17.123Z,2.84
2017-04-17T04:52:17.109Z,2.85
2017-04-17T04:53:16.791Z,2.72
2017-04-17T04:54:16.800Z,2.77
2017-04-17T04:55:16.755Z,2.83
2017-04-17T04:56:16.736Z,2.81
2017-04-17T04:57:17.037Z,2.72
2017-04-17T04:58:17.021Z,2.84
2017-04-17T04:59:17.007Z,2.78
2017-04-17T05:00:16.677Z,2.84
2017-04-17T05:01:16.976Z,2.83
2017-04-17T05:02:16.644Z,2.8
2017-04-17T05:03:16.634Z,2.83
2017-04-17T05:04:16.621Z,2.8
2017-04-17T05:05:16.918Z,2.96
2017-04-17T05:06:17.066Z,2.93
2017-04-17T05:07:16.885Z,2.87
2017-04-17T05:08:16.904Z,2.88
2017-04-17T05:09:16.547Z,2.99
2017-04-17T05:10:16.569Z,3.01
2017-04-17T05:11:16.836Z,2.98
2017-04-17T05:12:16.816Z,2.99
2017-04-17T05:13:16.801Z,2.96
2017-04-17T05:14:16.472Z,2.91
2017-04-17T05:15:16.766Z,3.03
2017-04-17T05:16:16.439Z,2.96
2017-04-17T05:17:16.425Z,2.98
2017-04-17T05:18:16.409Z,2.91
2017-04-17T05:19:16.711Z,2.91
2017-04-17T05:20:16.696Z,2.91
2017-04-17T05:21:16.678Z,2.9
2017-04-17T05:22:16.663Z,2.91
2017-04-17T05:23:16.336Z,2.83
2017-04-17T05:24:16.633Z,2.77
2017-04-17T05:25:16.620Z,2.8
2017-04-17T05:26:16.289Z,2.8
2017-04-17T05:27:16.600Z,2.85
2017-04-17T05:28:16.576Z,2.83
2017-04-17T05:29:16.560Z,2.83
2017-04-17T05:30:16.231Z,2.73
2017-04-17T05:31:16.214Z,2.65
2017-04-17T05:32:16.520Z,2.72
2017-04-17T05:33:16.505Z,2.69
2017-04-17T05:34:16.489Z,2.63
2017-04-17T05:35:16.471Z,2.69
2017-04-17T05:36:15.826Z,2.58
2017-04-17T05:37:16.441Z,2.55
2017-04-17T05:38:16.113Z,2.7
2017-04-17T05:39:16.413Z,2.59
2017-04-17T05:40:16.087Z,2.69
2017-04-17T05:41:16.138Z,2.59
2017-04-17T05:42:16.049Z,2.67
2017-04-17T05:43:16.355Z,2.62
2017-04-17T05:44:16.333Z,2.69
2017-04-17T05:45:16.320Z,2.66
2017-04-17T05:46:16.306Z,2.69
2017-04-17T05:47:16.293Z,2.63
2017-04-17T05:48:16.280Z,2.8
2017-04-17T05:49:16.370Z,2.69
2017-04-17T05:50:15.928Z,2.77
2017-04-17T05:51:16.232Z,2.77
2017-04-17T05:52:16.217Z,2.84
2017-04-17T05:53:16.202Z,2.77
2017-04-17T05:54:16.408Z,2.9
2017-04-17T05:55:16.175Z,2.88
2017-04-17T05:56:15.841Z,2.93
2017-04-17T05:57:15.825Z,2.93
2017-04-17T05:58:16.274Z,3.06
2017-04-17T05:59:16.113Z,3.11
2017-04-17T06:00:16.101Z,3.11
2017-04-17T06:01:16.080Z,3.08
2017-04-17T06:02:16.067Z,3.14
2017-04-17T06:03:16.054Z,3.03
2017-04-17T06:04:15.727Z,3.09
2017-04-17T06:05:15.710Z,3.09
2017-04-17T06:06:15.380Z,3.03
2017-04-17T06:07:15.678Z,3.01
2017-04-17T06:08:15.980Z,3.09
2017-04-17T06:09:15.969Z,3.05
2017-04-17T06:10:15.635Z,3.17
2017-04-17T06:11:15.933Z,3.11
2017-04-17T06:12:15.920Z,3.13
2017-04-17T06:13:15.907Z,3.16
2017-04-17T06:14:15.889Z,3.06
2017-04-17T06:15:15.671Z,3.05
2017-04-17T06:16:15.862Z,2.93
2017-04-17T06:17:15.530Z,2.93
2017-04-17T06:18:15.830Z,3.01
2017-04-17T06:19:15.502Z,2.9
2017-04-17T06:20:15.802Z,2.95
2017-04-17T06:21:15.788Z,3.01
2017-04-17T06:22:15.770Z,2.99
2017-04-17T06:23:15.763Z,2.91
2017-04-17T06:24:15.744Z,2.93
2017-04-17T06:25:15.726Z,2.8
2017-04-17T06:26:15.711Z,2.81
2017-04-17T06:27:15.696Z,2.83
2017-04-17T06:28:15.682Z,2.83
2017-04-17T06:29:15.354Z,2.72
2017-04-17T06:30:15.336Z,2.76
2017-04-17T06:31:15.637Z,2.76
2017-04-17T06:32:15.625Z,2.72
2017-04-17T06:33:15.463Z,2.78
2017-04-17T06:34:15.282Z,2.77
2017-04-17T06:35:15.587Z,2.77
2017-04-17T06:36:15.250Z,2.77
2017-04-17T06:37:15.552Z,2.81
2017-04-17T06:38:15.536Z,2.76
2017-04-17T06:39:15.521Z,2.7
2017-04-17T06:40:14.875Z,2.73
2017-04-17T06:41:15.581Z,2.8
2017-04-17T06:42:15.482Z,2.73
2017-04-17T06:43:14.832Z,2.77
2017-04-17T06:44:15.450Z,2.69
2017-04-17T06:45:15.430Z,2.72
2017-04-17T06:46:15.415Z,2.69
2017-04-17T06:47:15.400Z,2.8
2017-04-17T06:48:14.755Z,2.78
2017-04-17T06:49:14.743Z,2.8
2017-04-17T06:50:14.976Z,2.85
2017-04-17T06:51:15.345Z,2.81
2017-04-17T06:52:15.327Z,2.83
2017-04-17T06:53:14.999Z,2.81
2017-04-17T06:54:15.301Z,2.77
2017-04-17T06:55:15.280Z,2.81
2017-04-17T06:56:14.953Z,2.84
2017-04-17T06:57:14.939Z,2.85
2017-04-17T06:58:14.935Z,2.78
2017-04-17T06:59:15.254Z,2.77
2017-04-17T07:00:15.208Z,2.85
2017-04-17T07:01:15.195Z,2.9
2017-04-17T07:02:14.867Z,2.76
2017-04-17T07:03:15.164Z,2.78
2017-04-17T07:04:15.148Z,2.76
2017-04-17T07:05:15.139Z,2.63
2017-04-17T07:06:14.809Z,2.62
2017-04-17T07:07:14.851Z,2.55
2017-04-17T07:08:14.775Z,2.55
2017-04-17T07:09:15.077Z,2.58
2017-04-17T07:10:15.059Z,2.55
2017-04-17T07:11:14.730Z,2.49
2017-04-17T07:12:14.714Z,2.45
2017-04-17T07:13:15.013Z,2.45
2017-04-17T07:14:15.000Z,2.48
2017-04-17T07:15:14.985Z,2.48
2017-04-17T07:16:15.224Z,2.47
2017-04-17T07:17:14.954Z,2.51
2017-04-17T07:18:14.938Z,2.42
2017-04-17T07:19:14.924Z,2.52
2017-04-17T07:20:14.913Z,2.54
2017-04-17T07:21:14.893Z,2.49
2017-04-17T07:22:14.882Z,2.49
2017-04-17T07:23:14.862Z,2.59
2017-04-17T07:24:14.892Z,2.52
2017-04-17T07:25:14.521Z,2.54
2017-04-17T07:26:14.503Z,2.52
2017-04-17T07:27:14.500Z,2.58
2017-04-17T07:28:14.787Z,2.59
2017-04-17T07:29:14.459Z,2.58
2017-04-17T07:30:14.129Z,2.55
2017-04-17T07:31:14.428Z,2.55
2017-04-17T07:32:14.726Z,2.59
2017-04-17T07:33:14.403Z,2.66
2017-04-17T07:34:14.698Z,2.62
2017-04-17T07:35:14.682Z,2.66
2017-04-17T07:36:14.671Z,2.69
2017-04-17T07:37:14.657Z,2.76
2017-04-17T07:38:14.637Z,2.81
2017-04-17T07:39:14.625Z,2.78
2017-04-17T07:40:14.616Z,2.81
2017-04-17T07:41:14.768Z,2.88
2017-04-17T07:42:14.580Z,2.87
2017-04-17T07:43:14.250Z,2.9
2017-04-17T07:44:14.234Z,2.85
2017-04-17T07:45:14.535Z,2.93
2017-04-17T07:46:14.211Z,2.9
2017-04-17T07:47:14.506Z,2.81
2017-04-17T07:48:14.180Z,2.78
2017-04-17T07:49:14.162Z,2.84
2017-04-17T07:50:14.150Z,2.81
2017-04-17T07:51:14.132Z,2.85
2017-04-17T07:52:13.862Z,2.85
2017-04-17T07:53:14.102Z,2.93
2017-04-17T07:54:14.403Z,2.81
2017-04-17T07:55:14.387Z,2.88
2017-04-17T07:56:14.063Z,2.91
2017-04-17T07:57:14.046Z,2.99
2017-04-17T07:58:14.351Z,3.06
2017-04-17T07:59:14.525Z,3.09
2017-04-17T08:00:14.004Z,3.03
2017-04-17T08:01:13.988Z,3.05
2017-04-17T08:02:14.290Z,3.14
2017-04-17T08:03:13.967Z,3.17
2017-04-17T08:04:13.944Z,3.19
2017-04-17T08:05:14.625Z,3.21
2017-04-17T08:06:13.915Z,3.27
2017-04-17T08:07:14.214Z,3.37
2017-04-17T08:08:14.649Z,3.46
2017-04-17T08:09:13.870Z,3.46
2017-04-17T08:10:14.173Z,3.43
2017-04-17T08:11:13.842Z,3.54
2017-04-17T08:12:13.824Z,3.51
2017-04-17T08:13:13.818Z,3.54
2017-04-17T08:14:14.114Z,3.54
2017-04-17T08:15:14.100Z,3.57
2017-04-17T08:16:14.086Z,3.61
2017-04-17T08:17:14.332Z,3.53
2017-04-17T08:18:14.057Z,3.56
2017-04-17T08:19:14.049Z,3.54
2017-04-17T08:20:14.029Z,3.56
2017-04-17T08:21:14.011Z,3.49
2017-04-17T08:22:14.001Z,3.51
2017-04-17T08:23:13.678Z,3.56
2017-04-17T08:24:13.973Z,3.6
2017-04-17T08:25:13.818Z,3.63
2017-04-17T08:26:13.943Z,3.67
2017-04-17T08:27:13.613Z,3.66
2017-04-17T08:28:13.920Z,3.71
2017-04-17T08:29:13.899Z,3.71
2017-04-17T08:30:13.575Z,3.67
2017-04-17T08:31:13.560Z,3.75
2017-04-17T08:32:13.859Z,3.64
2017-04-17T08:33:13.845Z,3.72
2017-04-17T08:34:13.889Z,3.75
2017-04-17T08:35:13.813Z,3.67
2017-04-17T08:36:13.808Z,3.82
2017-04-17T08:37:13.477Z,3.76
2017-04-17T08:38:13.462Z,3.84
2017-04-17T08:39:13.760Z,3.92
2017-04-17T08:40:13.748Z,3.97
2017-04-17T08:41:13.737Z,3.97
2017-04-17T08:42:13.721Z,4.1
2017-04-17T08:43:13.396Z,4.11
2017-04-17T08:44:13.695Z,4.2
2017-04-17T08:45:13.679Z,4.29
2017-04-17T08:46:13.663Z,4.36
2017-04-17T08:47:13.651Z,4.39
2017-04-17T08:48:13.641Z,4.5
2017-04-17T08:49:12.996Z,4.51
2017-04-17T08:50:13.612Z,4.6
2017-04-17T08:51:13.597Z,4.71
2017-04-17T08:52:13.585Z,4.71
2017-04-17T08:53:13.259Z,4.69
2017-04-17T08:54:13.566Z,4.75
2017-04-17T08:55:13.545Z,4.79
2017-04-17T08:56:13.532Z,4.79
2017-04-17T08:57:13.515Z,4.79
2017-04-17T08:58:13.503Z,4.84
2017-04-17T08:59:13.495Z,4.94
2017-04-17T09:00:13.654Z,5.02
2017-04-17T09:01:13.463Z,5.1
2017-04-17T09:02:13.135Z,5.24
2017-04-17T09:03:13.441Z,5.41
2017-04-17T09:04:13.425Z,5.41
2017-04-17T09:05:13.409Z,5.41
2017-04-17T09:06:13.087Z,5.34
2017-04-17T09:07:13.390Z,5.42
2017-04-17T09:08:13.374Z,5.45
2017-04-17T09:09:13.361Z,5.6
2017-04-17T09:10:13.350Z,5.62
2017-04-17T09:11:12.707Z,5.75
2017-04-17T09:12:13.009Z,5.8
2017-04-17T09:13:13.315Z,5.81
2017-04-17T09:14:12.983Z,5.88
2017-04-17T09:15:13.285Z,5.85
2017-04-17T09:16:13.492Z,6.03
2017-04-17T09:17:12.948Z,6.13
2017-04-17T09:18:12.959Z,6.24
2017-04-17T09:19:12.930Z,6.36
2017-04-17T09:20:12.909Z,6.52
2017-04-17T09:21:13.210Z,6.67
2017-04-17T09:22:12.886Z,6.79
2017-04-17T09:23:12.877Z,6.82
2017-04-17T09:24:13.180Z,6.85
2017-04-17T09:25:13.269Z,6.82
2017-04-17T09:26:12.840Z,6.78
2017-04-17T09:27:13.141Z,6.8
2017-04-17T09:28:13.133Z,6.79
2017-04-17T09:29:13.119Z,6.82
2017-04-17T09:30:12.790Z,6.7
2017-04-17T09:31:12.782Z,6.76
2017-04-17T09:32:12.455Z,6.8
2017-04-17T09:33:13.075Z,6.75
2017-04-17T09:34:12.757Z,6.83
2017-04-17T09:35:12.734Z,6.78
2017-04-17T09:36:13.037Z,6.9
2017-04-17T09:37:13.027Z,7.01
2017-04-17T09:38:13.012Z,7.11
2017-04-17T09:39:13.003Z,7.12
2017-04-17T09:40:12.675Z,7.16
2017-04-17T09:41:12.980Z,7.22
2017-04-17T09:42:12.654Z,7.34
2017-04-17T09:43:12.961Z,7.39
2017-04-17T09:44:12.966Z,7.39
2017-04-17T09:45:12.953Z,7.37
2017-04-17T09:46:12.925Z,7.44
2017-04-17T09:47:12.598Z,7.39
2017-04-17T09:48:12.905Z,7.37
2017-04-17T09:49:12.265Z,7.22
2017-04-17T09:50:12.879Z,7.27
2017-04-17T09:51:12.870Z,7.19
2017-04-17T09:52:12.863Z,7.27
2017-04-17T09:53:12.851Z,7.22
2017-04-17T09:54:12.522Z,7.22
2017-04-17T09:55:12.826Z,7.23
2017-04-17T09:56:12.816Z,7.19
2017-04-17T09:57:12.806Z,7.22
2017-04-17T09:58:12.806Z,7.22
2017-04-17T09:59:12.785Z,7.21
2017-04-17T10:00:12.770Z,7.22
2017-04-17T10:01:12.765Z,7.19
2017-04-17T10:02:12.123Z,7.21
2017-04-17T10:03:12.744Z,7.16
2017-04-17T10:04:12.732Z,7.16
2017-04-17T10:05:12.718Z,7.03
2017-04-17T10:06:12.513Z,7.12
2017-04-17T10:07:12.698Z,7.03
2017-04-17T10:08:12.690Z,6.85
2017-04-17T10:09:12.681Z,6.86
2017-04-17T10:10:12.667Z,6.86
2017-04-17T10:11:12.655Z,6.75
2017-04-17T10:12:12.330Z,6.78
2017-04-17T10:13:12.633Z,6.79
2017-04-17T10:14:12.307Z,6.93
2017-04-17T10:15:12.609Z,6.86
2017-04-17T10:16:12.601Z,6.93
2017-04-17T10:17:12.738Z,6.88
2017-04-17T10:18:12.580Z,6.83
2017-04-17T10:19:12.569Z,6.86
2017-04-17T10:20:12.556Z,6.75
2017-04-17T10:21:12.547Z,6.76
2017-04-17T10:22:12.542Z,6.82
2017-04-17T10:23:12.527Z,6.9
2017-04-17T10:24:12.518Z,6.98
2017-04-17T10:25:12.193Z,7.04
2017-04-17T10:26:12.181Z,6.88
2017-04-17T10:27:12.490Z,7.03
2017-04-17T10:28:12.474Z,7
2017-04-17T10:29:12.759Z,7.16
2017-04-17T10:30:12.457Z,7.13
2017-04-17T10:31:12.129Z,7.09
2017-04-17T10:32:12.116Z,7.15
2017-04-17T10:33:12.418Z,7.19
2017-04-17T10:34:12.408Z,7.26
2017-04-17T10:35:12.398Z,7.31
2017-04-17T10:36:11.757Z,7.4
2017-04-17T10:37:12.376Z,7.44
2017-04-17T10:38:12.365Z,7.48
2017-04-17T10:39:12.355Z,7.41
2017-04-17T10:40:12.420Z,7.51
2017-04-17T10:41:12.331Z,7.48
2017-04-17T10:42:12.320Z,7.47
2017-04-17T10:43:12.307Z,7.45
2017-04-17T10:44:11.992Z,7.41
2017-04-17T10:45:12.289Z,7.45
2017-04-17T10:46:11.965Z,7.41
2017-04-17T10:47:12.276Z,7.54
2017-04-17T10:48:12.257Z,7.52
2017-04-17T10:49:11.938Z,7.4
2017-04-17T10:50:12.236Z,7.56
2017-04-17T10:51:12.226Z,7.4
2017-04-17T10:52:12.213Z,7.41
2017-04-17T10:53:12.205Z,7.48
2017-04-17T10:54:11.879Z,7.56
2017-04-17T10:55:12.183Z,7.41
2017-04-17T10:56:11.855Z,7.41
2017-04-17T10:57:12.168Z,7.37
2017-04-17T10:58:11.834Z,7.29
2017-04-17T10:59:12.141Z,7.37
2017-04-17T11:00:12.126Z,7.37
2017-04-17T11:01:12.117Z,7.26
2017-04-17T11:02:11.794Z,7.19
2017-04-17T11:03:12.098Z,7.29
2017-04-17T11:04:12.087Z,7.15
2017-04-17T11:05:12.076Z,7.16
2017-04-17T11:06:12.064Z,7.13
2017-04-17T11:07:12.055Z,7.01
2017-04-17T11:08:12.044Z,7.13
2017-04-17T11:09:12.033Z,7.16
2017-04-17T11:10:12.023Z,7.13
2017-04-17T11:11:12.049Z,7.16
2017-04-17T11:12:12.005Z,7.26
2017-04-17T11:13:11.993Z,7.22
2017-04-17T11:14:12.174Z,7.18
2017-04-17T11:15:11.973Z,7.12
2017-04-17T11:16:11.959Z,7.15
2017-04-17T11:17:11.952Z,7.05
2017-04-17T11:18:11.938Z,6.85
2017-04-17T11:19:11.924Z,6.72
2017-04-17T11:20:11.601Z,6.7
2017-04-17T11:21:11.904Z,6.64
2017-04-17T11:22:11.262Z,6.8
2017-04-17T11:23:11.568Z,6.79
2017-04-17T11:24:11.557Z,6.79
2017-04-17T11:25:11.866Z,6.8
2017-04-17T11:26:11.600Z,6.76
2017-04-17T11:27:11.525Z,6.88
2017-04-17T11:28:11.833Z,6.97
2017-04-17T11:29:11.818Z,6.94
2017-04-17T11:30:11.499Z,7.01
2017-04-17T11:31:11.621Z,6.9
2017-04-17T11:32:11.782Z,7.04
2017-04-17T11:33:11.145Z,7.01
2017-04-17T11:34:11.767Z,7.15
2017-04-17T11:35:11.437Z,7.29
2017-04-17T11:36:11.742Z,7.37
2017-04-17T11:37:11.728Z,7.48
2017-04-17T11:38:11.726Z,7.49
2017-04-17T11:39:11.396Z,7.54
2017-04-17T11:40:11.698Z,7.54
2017-04-17T11:41:11.687Z,7.49
2017-04-17T11:42:11.673Z,7.59
2017-04-17T11:43:11.665Z,7.47
2017-04-17T11:44:11.654Z,7.39
2017-04-17T11:45:11.643Z,7.48
2017-04-17T11:46:11.320Z,7.54
2017-04-17T11:47:11.307Z,7.4
2017-04-17T11:48:11.614Z,7.4
2017-04-17T11:49:11.286Z,7.44
2017-04-17T11:50:11.587Z,7.39
2017-04-17T11:51:11.265Z,7.47
2017-04-17T11:52:11.255Z,7.63
2017-04-17T11:53:11.243Z,7.88
2017-04-17T11:54:11.547Z,7.92
2017-04-17T11:55:11.221Z,8.14
2017-04-17T11:56:11.553Z,8.07
2017-04-17T11:57:11.517Z,8.16
2017-04-17T11:58:11.505Z,8.13
2017-04-17T11:59:11.500Z,7.93
2017-04-17T12:00:11.486Z,7.77
2017-04-17T12:01:11.159Z,7.48
2017-04-17T12:02:11.463Z,7.34
2017-04-17T12:03:11.138Z,7.3
2017-04-17T12:04:11.463Z,7.31
2017-04-17T12:05:11.434Z,7.31
2017-04-17T12:06:10.797Z,7.44
2017-04-17T12:07:11.413Z,7.41
2017-04-17T12:08:11.401Z,7.52
2017-04-17T12:09:11.391Z,7.36
2017-04-17T12:10:11.379Z,7.49
2017-04-17T12:11:11.367Z,7.54
2017-04-17T12:12:11.046Z,7.49
2017-04-17T12:13:11.346Z,7.47
2017-04-17T12:14:11.030Z,7.45
2017-04-17T12:15:11.334Z,7.39
2017-04-17T12:16:11.319Z,7.39
2017-04-17T12:17:11.308Z,7.48
2017-04-17T12:18:10.987Z,7.49
2017-04-17T12:19:10.971Z,7.45
2017-04-17T12:20:10.957Z,7.58
2017-04-17T12:21:11.262Z,7.59
2017-04-17T12:22:11.254Z,7.58
2017-04-17T12:23:11.240Z,7.68
2017-04-17T12:24:10.917Z,7.73
2017-04-17T12:25:11.235Z,7.86
2017-04-17T12:26:11.209Z,7.95
2017-04-17T12:27:11.201Z,8.13
2017-04-17T12:28:11.194Z,8.17
2017-04-17T12:29:11.312Z,8.24
2017-04-17T12:30:11.169Z,8.4
2017-04-17T12:31:11.173Z,8.62
2017-04-17T12:32:11.151Z,8.71
2017-04-17T12:33:11.139Z,9.04
2017-04-17T12:34:10.813Z,8.95
2017-04-17T12:35:11.118Z,9.03
2017-04-17T12:36:11.116Z,9.11
2017-04-17T12:37:11.100Z,9.05
2017-04-17T12:38:11.539Z,9.01
2017-04-17T12:39:11.087Z,9.01
2017-04-17T12:40:10.754Z,9.01
2017-04-17T12:41:11.063Z,9.01
2017-04-17T12:42:10.742Z,9
2017-04-17T12:43:11.043Z,9
2017-04-17T12:44:10.718Z,9
2017-04-17T12:45:11.021Z,9.05
2017-04-17T12:46:11.010Z,9.24
2017-04-17T12:47:11.005Z,9.19
2017-04-17T12:48:10.682Z,9.35
2017-04-17T12:49:10.988Z,9.35
2017-04-17T12:50:10.978Z,9.26
2017-04-17T12:51:10.967Z,9.24
2017-04-17T12:52:10.960Z,9.16
2017-04-17T12:53:10.952Z,9.12
2017-04-17T12:54:11.037Z,9.16
2017-04-17T12:55:10.616Z,9.19
2017-04-17T12:56:10.609Z,9.29
2017-04-17T12:57:10.915Z,9.44
2017-04-17T12:58:10.904Z,9.39
2017-04-17T12:59:10.898Z,9.62
2017-04-17T13:00:10.885Z,9.72
2017-04-17T13:01:10.879Z,9.75
2017-04-17T13:02:10.868Z,9.8
2017-04-17T13:03:10.858Z,9.77
2017-04-17T13:04:10.542Z,9.71
2017-04-17T13:05:10.842Z,9.57
2017-04-17T13:06:10.834Z,9.37
2017-04-17T13:07:10.825Z,9.29
2017-04-17T13:08:10.816Z,8.98
2017-04-17T13:09:10.812Z,8.97
2017-04-17T13:10:10.795Z,9.08
2017-04-17T13:11:10.475Z,9.03
2017-04-17T13:12:10.464Z,9.01
2017-04-17T13:13:10.766Z,9.08
2017-04-17T13:14:10.761Z,9.05
2017-04-17T13:15:10.753Z,8.85
2017-04-17T13:16:10.744Z,8.61
2017-04-17T13:17:10.732Z,8.5
2017-04-17T13:18:10.728Z,8.58
2017-04-17T13:19:10.715Z,8.52
2017-04-17T13:20:10.703Z,8.46
2017-04-17T13:21:10.381Z,8.35
2017-04-17T13:22:10.687Z,8.16